Latest Weather Observations for Scotts Peak

IDT60801

Issued at 3:32 pm EST Sunday 20 August 2017 (issued every 30 minutes, with the page automatically refreshed every 10 minutes)

About weather observations | Map of weather stations | Latest weather observations for TAS | Other Formats
Station Details ID: 097083 Name: SCOTTS PEAK DAM Lat: -43.04 Lon: 146.27 Height: 408.0 m
Data from the previous 72 hours. | See also: Recent months at Scotts Peak
Date/Time
EST
Temp
°C
App
Temp
°C
Dew
Point
°C
Rel
Hum
%
Delta-T
°C
Wind Press
QNH
hPa
Press
MSL
hPa
Rain since
9am
mm
Dir  Spd
km/h
Gust
km/h
Spd
kts
Gust
kts
20/03:30pm 7.8 4.0 7.4 97 0.2 NW 17 20 9 11 - - 0.0
20/03:00pm 6.3 2.1 5.7 96 0.3 WSW 17 20 9 11 - - 0.0
20/02:30pm 8.1 3.6 6.9 92 0.6 NW 20 28 11 15 - - 0.0
20/02:00pm 8.5 5.0 5.3 80 1.5 NNW 13 19 7 10 - - 0.0
20/01:30pm 8.6 2.8 4.2 74 2.0 NNW 24 28 13 15 - - 0.0
20/01:00pm 10.7 5.3 6.3 74 2.1 NNW 24 30 13 16 - - 0.0
20/12:30pm 10.3 4.0 5.9 74 2.1 NW 28 37 15 20 - - 0.0
20/12:00pm 8.3 2.1 4.5 77 1.7 NW 26 37 14 20 - - 0.0
20/11:30am 10.1 5.4 7.7 85 1.2 NNW 22 26 12 14 - - 0.0
20/11:00am 8.6 4.7 8.6 100 0.0 N 19 24 10 13 - - 0.0
20/10:30am 6.0 1.3 6.0 100 0.0 NNW 20 26 11 14 - - 0.0
20/10:00am 5.4 -0.2 5.4 100 0.0 NNW 24 30 13 16 - - 0.0
20/09:30am 5.4 0.2 5.4 100 0.0 N 22 28 12 15 - - 0.0
20/09:00am 4.8 -0.5 4.8 100 0.0 NNW 22 26 12 14 - - 2.0
20/08:30am 4.4 -0.4 4.4 100 0.0 NNW 19 22 10 12 - - 2.0
20/08:00am 4.0 -1.9 4.0 100 0.0 NNW 24 30 13 16 - - 2.0
20/07:30am 3.6 -1.4 3.6 100 0.0 N 19 22 10 12 - - 2.0
20/07:00am 3.4 -2.2 3.3 99 0.0 NNW 22 26 12 14 - - 2.0
20/06:30am 3.3 -2.3 3.2 99 0.0 NNW 22 26 12 14 - - 2.0
20/06:00am 3.5 -1.7 3.4 99 0.0 NNW 20 24 11 13 - - 2.0
20/05:30am 3.4 -1.7 3.3 99 0.0 NNW 19 22 10 12 - - 2.0
20/05:00am 3.2 -2.1 3.1 99 0.0 NNW 20 26 11 14 - - 2.0
20/04:30am 2.9 -2.8 2.8 99 0.0 NNW 22 28 12 15 - - 2.0
20/04:00am 3.2 -2.5 3.1 99 0.0 NNW 22 28 12 15 - - 2.0
20/03:30am 3.1 -2.6 3.0 99 0.0 NNW 22 26 12 14 - - 2.0
20/03:00am 3.1 -2.6 3.0 99 0.0 NW 22 26 12 14 - - 2.0
20/02:30am 2.7 -2.5 2.6 99 0.0 NNW 19 26 10 14 - - 2.0
20/02:00am 2.8 -2.6 2.7 99 0.0 NNW 20 24 11 13 - - 2.0
20/01:30am 2.6 -2.6 2.5 99 0.0 NNW 19 24 10 13 - - 2.0
20/01:00am 2.0 -3.3 1.9 99 0.0 NNW 19 22 10 12 - - 2.0
20/12:30am 2.1 -4.1 2.0 99 0.0 NNW 24 30 13 16 - - 2.0
20/12:00am 2.5 -2.0 2.4 99 0.0 NW 15 22 8 12 - - 1.8
 
Date/Time
EST
Temp
°C
App
Temp
°C
Dew
Point
°C
Rel
Hum
%
Delta-T
°C
Wind Press
QNH
hPa
Press
MSL
hPa
Rain since
9am
mm
Dir  Spd
km/h
Gust
km/h
Spd
kts
Gust
kts
19/11:30pm 2.3 -2.9 2.2 99 0.0 NW 19 20 10 11 - - 1.8
19/11:00pm 1.8 -3.1 1.7 99 0.0 NW 17 22 9 12 - - 1.8
19/10:30pm 2.0 -2.5 1.9 99 0.0 NW 15 19 8 10 - - 1.8
19/10:00pm 1.4 -3.6 1.3 99 0.0 NW 17 19 9 10 - - 1.8
19/09:30pm 1.5 -3.5 1.4 99 0.0 NNW 17 20 9 11 - - 1.8
19/09:00pm 2.1 -3.4 2.0 99 0.0 NW 20 24 11 13 - - 1.8
19/08:30pm 2.4 -2.5 2.3 99 0.0 NW 17 20 9 11 - - 1.8
19/08:00pm 2.6 -1.5 2.2 97 0.2 NW 13 19 7 10 - - 1.8
19/07:30pm 2.8 -0.9 2.2 96 0.2 WNW 11 15 6 8 - - 1.8
19/07:00pm 2.6 -0.8 1.9 95 0.3 WNW 9 11 5 6 - - 1.8
19/06:30pm 3.0 -1.5 2.4 96 0.2 WNW 15 19 8 10 - - 1.8
19/06:00pm 3.4 -2.7 2.5 94 0.4 WNW 24 32 13 17 - - 1.8
19/05:30pm 3.9 0.5 2.1 88 0.7 W 9 15 5 8 - - 1.6
19/05:00pm 4.5 1.6 2.7 88 0.7 SW 7 15 4 8 - - 1.6
19/04:30pm 5.0 -0.2 2.5 84 1.0 SW 19 30 10 16 - - 1.6
19/04:00pm 5.5 -1.3 3.2 85 1.0 WNW 28 35 15 19 - - 1.6
19/03:30pm 6.1 1.2 4.1 87 0.9 W 19 28 10 15 - - 1.6
19/03:00pm 4.0 -2.4 3.4 96 0.3 W 26 39 14 21 - - 1.6
19/02:30pm 3.9 -2.6 2.4 90 0.6 SW 26 41 14 22 - - 1.2
19/02:00pm 5.4 0.2 3.6 88 0.8 WNW 20 37 11 20 - - 1.0
19/01:30pm 4.7 -0.5 3.8 94 0.4 W 20 28 11 15 - - 0.6
19/01:00pm 3.6 -3.8 2.0 89 0.6 WSW 30 39 16 21 - - 0.4
19/12:30pm 6.7 1.3 4.5 86 1.0 NW 22 30 12 16 - - 0.0
19/12:00pm 6.3 0.7 3.3 81 1.3 NW 22 35 12 19 - - 0.0
19/11:30am 7.5 1.5 5.1 85 1.1 NW 26 32 14 17 - - 0.0
19/11:00am 6.0 0.4 3.7 85 1.0 NW 22 32 12 17 - - 0.0
19/10:30am 4.1 -3.3 1.8 85 0.9 WNW 30 44 16 24 - - 0.0
19/10:25am 4.5 -3.0 1.5 81 1.2 NW 30 44 16 24 - - 0.0
19/10:00am 5.9 1.3 3.6 85 1.0 NW 17 22 9 12 - - 0.0
19/09:30am 4.2 0.1 2.2 87 0.8 NW 13 19 7 10 - - 0.0
19/09:00am 4.0 -0.9 1.7 85 0.9 NW 17 24 9 13 - - 4.6
19/08:30am 2.7 -1.8 2.1 96 0.2 NW 15 19 8 10 - - 4.6
19/08:00am 1.3 -3.4 0.7 96 0.2 NW 15 20 8 11 - - 4.6
19/07:30am 1.6 -3.6 0.3 91 0.5 WNW 17 20 9 11 - - 4.6
19/07:00am 1.0 -3.5 0.0 93 0.4 W 13 17 7 9 - - 4.6
19/06:30am 1.4 -3.8 -0.1 90 0.6 WSW 17 20 9 11 - - 4.6
19/06:00am 1.0 -3.9 -0.5 90 0.6 WSW 15 17 8 9 - - 4.6
19/05:30am 1.9 -2.2 0.0 87 0.7 WSW 11 24 6 13 - - 4.6
19/05:00am 1.1 -3.0 -0.1 92 0.4 WNW 11 15 6 8 - - 4.6
19/04:30am 0.9 -3.6 0.0 94 0.3 W 13 17 7 9 - - 4.6
19/04:00am 1.2 -4.4 -0.1 91 0.5 W 19 24 10 13 - - 4.6
19/03:30am 1.4 -3.1 -0.1 90 0.6 WSW 13 17 7 9 - - 4.6
19/03:00am 0.8 -4.8 -0.2 93 0.4 WSW 19 20 10 11 - - 4.6
19/02:30am 1.0 -4.6 0.0 93 0.4 WSW 19 24 10 13 - - 4.6
19/02:00am 1.3 -5.2 0.0 91 0.5 SW 24 32 13 17 - - 4.6
19/01:30am 1.2 -4.8 -1.2 84 0.9 SW 20 26 11 14 - - 4.6
19/01:00am 1.8 -4.7 -2.1 75 1.4 SW 22 28 12 15 - - 4.6
19/12:30am 2.8 -3.4 -3.1 65 2.1 S 20 30 11 16 - - 4.6
19/12:00am 2.8 -3.7 -2.7 67 2.0 SSW 22 32 12 17 - - 4.6
 
Date/Time
EST
Temp
°C
App
Temp
°C
Dew
Point
°C
Rel
Hum
%
Delta-T
°C
Wind Press
QNH
hPa
Press
MSL
hPa
Rain since
9am
mm
Dir  Spd
km/h
Gust
km/h
Spd
kts
Gust
kts
18/11:30pm 2.6 -3.8 -1.9 72 1.6 SSW 22 28 12 15 - - 4.6
18/11:00pm 2.5 -3.3 -1.3 76 1.4 S 19 26 10 14 - - 4.6
18/10:30pm 2.3 -3.4 -1.0 79 1.2 SSW 19 28 10 15 - - 4.6
18/10:00pm 2.0 -2.1 -0.2 85 0.8 SE 11 20 6 11 - - 4.6
18/09:30pm 2.5 -3.3 -0.4 81 1.1 SSW 20 28 11 15 - - 4.6
18/09:00pm 2.0 -4.6 -0.1 86 0.8 S 24 35 13 19 - - 4.6
18/08:30pm 2.5 -4.5 -0.8 79 1.2 S 26 35 14 19 - - 4.6
18/08:00pm 2.6 -4.1 -0.8 78 1.3 S 24 35 13 19 - - 4.6
18/07:30pm 2.5 -3.6 0.1 84 0.9 S 22 32 12 17 - - 4.6
18/07:00pm 2.4 -4.0 0.8 89 0.6 S 24 35 13 19 - - 4.6
18/06:30pm 1.4 -2.1 1.3 99 0.0 SE 9 11 5 6 - - 4.6
18/06:00pm 1.7 -1.2 1.6 99 0.0 S 6 9 3 5 - - 4.6
18/05:30pm 2.0 -1.8 1.9 99 0.0 SSE 11 20 6 11 - - 4.6
18/05:00pm 1.9 -2.3 1.8 99 0.0 SE 13 19 7 10 - - 4.6
18/04:30pm 1.6 -4.0 1.2 97 0.2 SSE 20 33 11 18 - - 4.4
18/04:00pm 3.0 -2.4 2.4 96 0.2 SSW 20 26 11 14 - - 3.6
18/03:30pm 2.0 -3.9 1.4 96 0.2 SSW 22 30 12 16 - - 3.4
18/03:00pm 2.5 -1.6 2.2 98 0.1 S 13 22 7 12 - - 3.4
18/02:30pm 2.9 -1.9 2.6 98 0.1 S 17 20 9 11 - - 3.0
18/02:00pm 2.4 -3.8 2.3 99 0.0 SW 24 35 13 19 - - 2.8
18/01:30pm 2.2 -4.4 2.1 99 0.0 SW 26 33 14 18 - - 2.8
18/01:00pm 3.0 -3.9 2.4 96 0.2 SW 28 41 15 22 - - 2.2
18/12:30pm 3.8 -0.1 3.5 98 0.1 SW 13 24 7 13 - - 2.2
18/12:10pm 2.4 -5.6 1.8 96 0.2 WSW 33 52 18 28 - - 2.2
18/12:04pm 2.5 -3.8 1.3 92 0.5 WSW 24 52 13 28 - - 2.2
18/12:00pm 3.6 -1.9 2.0 89 0.6 WSW 20 30 11 16 - - 1.8
18/11:30am 4.5 -1.1 3.3 92 0.5 SW 22 32 12 17 - - 1.6
18/11:00am 4.5 -0.1 3.9 96 0.3 SW 17 26 9 14 - - 1.6
18/10:30am 3.1 -0.5 2.8 98 0.1 SW 11 17 6 9 - - 1.6
18/10:00am 2.1 -1.7 2.0 99 0.0 S 11 17 6 9 - - 1.6
18/09:30am 2.1 -5.3 1.8 98 0.1 SW 30 41 16 22 - - 1.0
18/09:12am 2.1 -5.0 1.2 94 0.4 SSW 28 50 15 27 - - 0.4
18/09:00am 3.0 -3.5 2.7 98 0.1 SW 26 35 14 19 - - 19.4
18/08:30am 2.9 -1.5 2.6 98 0.1 SW 15 22 8 12 - - 19.2
18/08:00am 2.7 -2.1 2.6 99 0.0 SW 17 32 9 17 - - 19.2
18/07:30am 2.4 -2.1 2.3 99 0.0 WSW 15 20 8 11 - - 18.8
18/07:00am 2.4 -1.7 2.3 99 0.0 WSW 13 19 7 10 - - 18.8
18/06:30am 2.1 -2.0 2.0 99 0.0 W 13 19 7 10 - - 18.8
18/06:00am 2.3 -2.9 2.2 99 0.0 SW 19 22 10 12 - - 18.8
18/05:30am 2.1 -2.8 2.0 99 0.0 WSW 17 22 9 12 - - 18.4
18/05:00am 2.2 -3.6 2.1 99 0.0 WSW 22 28 12 15 - - 18.2
18/04:30am 2.8 -2.4 2.7 99 0.0 W 19 26 10 14 - - 17.4
18/04:00am 2.7 -1.0 2.6 99 0.0 W 11 13 6 7 - - 17.4
18/03:30am 2.6 -1.8 2.5 99 0.0 W 15 17 8 9 - - 17.2
18/03:00am 2.8 -2.4 2.7 99 0.0 NW 19 24 10 13 - - 17.0
18/02:30am 2.5 -3.7 2.4 99 0.0 WNW 24 32 13 17 - - 17.0
18/02:00am 2.6 -2.8 2.5 99 0.0 W 20 24 11 13 - - 16.8
18/01:30am 2.4 -3.8 2.3 99 0.0 WSW 24 33 13 18 - - 16.6
18/01:00am 2.3 -2.9 2.2 99 0.0 SW 19 24 10 13 - - 15.0
18/12:30am 3.0 -1.0 2.9 99 0.0 SW 13 19 7 10 - - 13.2
18/12:00am 3.1 -2.6 3.0 99 0.0 NW 22 26 12 14 - - 12.4
 
Date/Time
EST
Temp
°C
App
Temp
°C
Dew
Point
°C
Rel
Hum
%
Delta-T
°C
Wind Press
QNH
hPa
Press
MSL
hPa
Rain since
9am
mm
Dir  Spd
km/h
Gust
km/h
Spd
kts
Gust
kts
17/11:30pm 3.0 -2.3 2.9 99 0.0 NNW 20 24 11 13 - - 12.4
17/11:00pm 2.8 -0.8 2.7 99 0.0 NW 11 15 6 8 - - 12.4
17/10:30pm 3.1 -0.5 3.0 99 0.0 W 11 19 6 10 - - 12.2
17/10:00pm 3.5 -2.1 3.4 99 0.0 NW 22 33 12 18 - - 11.6
17/09:30pm 3.4 -3.4 3.3 99 0.0 WNW 28 35 15 19 - - 11.4
17/09:00pm 3.5 -4.6 3.4 99 0.0 NW 35 43 19 23 - - 10.8
17/08:30pm 3.5 -1.7 3.4 99 0.0 NW 20 26 11 14 - - 10.6
17/08:00pm 3.4 -1.7 3.3 99 0.0 NNW 19 24 10 13 - - 10.6
17/07:30pm 3.5 -1.7 3.4 99 0.0 W 20 33 11 18 - - 10.6
17/07:08pm 3.5 -2.9 3.4 99 0.0 WNW 26 48 14 26 - - 10.2
17/07:07pm 3.5 -2.9 3.4 99 0.0 WNW 26 48 14 26 - - 10.2
17/07:00pm 3.4 -2.6 3.3 99 0.0 NW 24 28 13 15 - - 10.0
17/06:30pm 3.1 -4.5 3.0 99 0.0 W 32 46 17 25 - - 9.6
17/06:25pm 3.0 -4.8 2.9 99 0.0 W 33 52 18 28 - - 9.4
17/06:00pm 3.3 -4.4 3.2 99 0.0 WNW 33 43 18 23 - - 6.6
17/05:30pm 3.6 -6.5 3.5 99 0.0 WNW 46 59 25 32 - - 5.0
17/05:20pm 4.0 -4.0 3.9 99 0.0 WNW 35 56 19 30 - - 4.2
17/05:00pm 4.2 -5.3 4.1 99 0.0 NW 43 54 23 29 - - 3.6
17/04:41pm 4.3 -3.7 3.9 97 0.2 WNW 35 54 19 29 - - 3.6
17/04:30pm 4.1 -6.3 4.0 99 0.0 NW 48 57 26 31 - - 3.6
17/04:21pm 4.3 -5.3 4.2 99 0.0 NW 44 57 24 31 - - 3.6
17/04:10pm 4.2 -3.3 3.6 96 0.3 WNW 32 39 17 21 - - 3.0
17/04:00pm 4.2 -4.3 3.2 93 0.4 W 37 56 20 30 - - 3.0
17/03:37pm 5.2 -2.8 3.9 91 0.6 WNW 35 54 19 29 - - 3.0

Other Formats:

Comma delimited format used in spreadsheet applications
http://www.bom.gov.au/fwo/IDT60801/IDT60801.95958.axf

JavaScript Object Notation format (JSON) in row-major order
http://www.bom.gov.au/fwo/IDT60801/IDT60801.95958.json